MAC331 GMMW-LFMT
Flight info
| Callsign | MAC331 |
|---|---|
| Flight time | 1h 24m |
| Altitude | 34000 |
| Route | ARI UM372 ESAMI M372 AMR N860 BEGOX M445 SOPET M985 BCN DCT PPG |
| Aircraft | A320/M-SDE3FGHIRWY/LB1 |
Departure
| Time | 2026-05-04 11:17 |
|---|---|
| Airport | Nador Al Aaroui International Airport (GMMW) |
Arrival
| Time | 2026-05-04 12:42 |
|---|---|
| Airport | Montpellier-Méditerranée Airport (LFMT) |
| Time | Latitude | Longitude | Altitude | Speed | Heading |
|---|---|---|---|---|---|
| 2026-05-04 11:06 | 34.99249 | -3.02772 | 600 ft | 0 kts | 124° |
| 2026-05-04 11:13 | 34.99242 | -3.02760 | 600 ft | 5 kts | 124° |
| 2026-05-04 11:13 | 34.99205 | -3.02705 | 599 ft | 12 kts | 116° |
| 2026-05-04 11:13 | 34.99224 | -3.02593 | 598 ft | 15 kts | 77° |
| 2026-05-04 11:14 | 34.99232 | -3.02555 | 597 ft | 14 kts | 77° |
| 2026-05-04 11:16 | 34.99029 | -3.02195 | 604 ft | 5 kts | 253° |
| 2026-05-04 11:16 | 34.99015 | -3.02275 | 602 ft | 30 kts | 258° |
| 2026-05-04 11:16 | 34.98908 | -3.02897 | 601 ft | 117 kts | 258° |
| 2026-05-04 11:17 | 34.98695 | -3.04131 | 821 ft | 165 kts | 261° |
| 2026-05-04 11:17 | 34.98475 | -3.05530 | 1664 ft | 174 kts | 266° |
| 2026-05-04 11:19 | 35.07153 | -3.04736 | 5745 ft | 282 kts | 19° |
| 2026-05-04 11:19 | 35.09010 | -3.03894 | 6619 ft | 288 kts | 16° |
| 2026-05-04 11:19 | 35.10924 | -3.03084 | 7504 ft | 294 kts | 15° |
| 2026-05-04 11:19 | 35.12885 | -3.02289 | 8256 ft | 302 kts | 22° |
| 2026-05-04 11:20 | 35.14602 | -3.00746 | 8962 ft | 313 kts | 49° |
| 2026-05-04 11:20 | 35.15840 | -2.98533 | 9734 ft | 318 kts | 60° |
| 2026-05-04 11:20 | 35.16984 | -2.96179 | 10323 ft | 331 kts | 60° |
| 2026-05-04 11:20 | 35.18187 | -2.93661 | 10569 ft | 355 kts | 60° |
| 2026-05-04 11:22 | 35.36066 | -2.85609 | 13470 ft | 431 kts | 6° |
| 2026-05-04 11:22 | 35.38984 | -2.84884 | 14011 ft | 436 kts | 6° |
| 2026-05-04 11:23 | 35.41974 | -2.84154 | 14520 ft | 440 kts | 6° |
| 2026-05-04 11:23 | 35.44993 | -2.83432 | 15055 ft | 443 kts | 6° |
| 2026-05-04 11:24 | 35.63224 | -2.76867 | 18088 ft | 466 kts | 14° |
| 2026-05-04 11:25 | 35.66308 | -2.75604 | 18545 ft | 469 kts | 14° |
| 2026-05-04 11:25 | 35.69414 | -2.74335 | 18962 ft | 472 kts | 14° |
| 2026-05-04 11:25 | 35.72538 | -2.73060 | 19396 ft | 474 kts | 13° |
| 2026-05-04 11:26 | 35.78846 | -2.70481 | 20185 ft | 480 kts | 13° |
| 2026-05-04 11:27 | 36.01395 | -2.61020 | 22704 ft | 499 kts | 14° |
| 2026-05-04 11:28 | 36.04690 | -2.59618 | 23045 ft | 502 kts | 14° |
| 2026-05-04 11:28 | 36.08005 | -2.58209 | 23376 ft | 504 kts | 14° |
| 2026-05-04 11:28 | 36.11325 | -2.56801 | 23682 ft | 507 kts | 14° |
| 2026-05-04 11:28 | 36.14668 | -2.55385 | 23957 ft | 509 kts | 14° |
| 2026-05-04 11:29 | 36.18021 | -2.53963 | 24233 ft | 510 kts | 14° |
| 2026-05-04 11:29 | 36.21387 | -2.52531 | 24515 ft | 512 kts | 14° |
| 2026-05-04 11:29 | 36.24761 | -2.51094 | 24806 ft | 514 kts | 14° |
| 2026-05-04 11:29 | 36.28148 | -2.49649 | 25066 ft | 516 kts | 14° |
| 2026-05-04 11:31 | 36.51661 | -2.39593 | 27762 ft | 508 kts | 13° |
| 2026-05-04 11:33 | 36.74926 | -2.29569 | 30509 ft | 503 kts | 12° |
| 2026-05-04 11:33 | 36.78240 | -2.28138 | 30764 ft | 504 kts | 13° |
| 2026-05-04 11:33 | 36.81542 | -2.26708 | 31087 ft | 504 kts | 14° |
| 2026-05-04 11:34 | 36.84752 | -2.24999 | 31415 ft | 509 kts | 22° |
| 2026-05-04 11:34 | 36.87920 | -2.22904 | 31758 ft | 509 kts | 23° |
| 2026-05-04 11:34 | 36.91049 | -2.20827 | 32096 ft | 508 kts | 23° |
| 2026-05-04 11:34 | 36.94133 | -2.18780 | 32426 ft | 508 kts | 23° |
| 2026-05-04 11:35 | 36.97284 | -2.16688 | 32808 ft | 507 kts | 23° |
| 2026-05-04 11:35 | 37.00361 | -2.14645 | 33070 ft | 507 kts | 23° |
| 2026-05-04 11:35 | 37.03484 | -2.12569 | 33345 ft | 508 kts | 23° |
| 2026-05-04 11:35 | 37.06597 | -2.10497 | 33648 ft | 508 kts | 23° |
| 2026-05-04 11:36 | 37.09718 | -2.08417 | 33923 ft | 508 kts | 23° |
| 2026-05-04 11:36 | 37.12851 | -2.06328 | 33969 ft | 512 kts | 23° |
| 2026-05-04 11:36 | 37.19148 | -2.02119 | 33966 ft | 514 kts | 23° |
| 2026-05-04 11:37 | 37.25476 | -1.97887 | 33954 ft | 516 kts | 22° |
| 2026-05-04 11:37 | 37.31862 | -1.93748 | 33957 ft | 517 kts | 22° |
| 2026-05-04 11:38 | 37.38282 | -1.89690 | 33941 ft | 517 kts | 22° |
| 2026-05-04 11:38 | 37.44704 | -1.85598 | 33945 ft | 517 kts | 22° |
| 2026-05-04 11:39 | 37.51110 | -1.81472 | 33957 ft | 518 kts | 22° |
| 2026-05-04 11:41 | 37.73598 | -1.66928 | 33985 ft | 520 kts | 22° |
| 2026-05-04 11:41 | 37.80002 | -1.62771 | 33963 ft | 520 kts | 22° |
| 2026-05-04 11:42 | 37.86439 | -1.58581 | 33950 ft | 521 kts | 22° |
| 2026-05-04 11:42 | 37.92879 | -1.54375 | 33948 ft | 521 kts | 23° |
| 2026-05-04 11:43 | 37.99316 | -1.50105 | 33953 ft | 522 kts | 24° |
| 2026-05-04 11:43 | 38.05736 | -1.45809 | 33950 ft | 522 kts | 24° |
| 2026-05-04 11:44 | 38.12160 | -1.41505 | 33958 ft | 523 kts | 24° |
| 2026-05-04 11:44 | 38.18599 | -1.37196 | 34014 ft | 523 kts | 24° |
| 2026-05-04 11:45 | 38.23959 | -1.33608 | 33995 ft | 524 kts | 24° |
| 2026-05-04 11:45 | 38.31449 | -1.28563 | 33985 ft | 524 kts | 24° |
| 2026-05-04 11:46 | 38.37892 | -1.24218 | 33988 ft | 524 kts | 24° |
| 2026-05-04 11:46 | 38.43302 | -1.20574 | 33986 ft | 524 kts | 24° |
| 2026-05-04 11:47 | 38.49725 | -1.16240 | 33996 ft | 525 kts | 24° |
| 2026-05-04 11:47 | 38.56185 | -1.11866 | 33972 ft | 525 kts | 24° |
| 2026-05-04 11:48 | 38.62631 | -1.07485 | 33985 ft | 525 kts | 24° |
| 2026-05-04 11:48 | 38.69091 | -1.03098 | 34001 ft | 525 kts | 24° |
| 2026-05-04 11:49 | 38.75538 | -0.98712 | 33989 ft | 525 kts | 24° |
| 2026-05-04 11:49 | 38.81956 | -0.94334 | 33985 ft | 526 kts | 24° |
| 2026-05-04 11:50 | 38.88447 | -0.89893 | 33977 ft | 525 kts | 24° |
| 2026-05-04 11:50 | 38.94859 | -0.85494 | 34003 ft | 525 kts | 24° |
| 2026-05-04 11:51 | 39.01296 | -0.81065 | 33973 ft | 525 kts | 25° |
| 2026-05-04 11:51 | 39.07622 | -0.76356 | 33926 ft | 528 kts | 34° |
| 2026-05-04 11:52 | 39.13330 | -0.70384 | 33972 ft | 529 kts | 38° |
| 2026-05-04 11:52 | 39.19015 | -0.64320 | 33950 ft | 530 kts | 38° |
| 2026-05-04 11:53 | 39.24698 | -0.58255 | 33947 ft | 531 kts | 38° |
| 2026-05-04 11:53 | 39.30400 | -0.52210 | 33950 ft | 531 kts | 36° |
| 2026-05-04 11:55 | 39.54047 | -0.29385 | 33975 ft | 530 kts | 36° |
| 2026-05-04 11:56 | 39.59906 | -0.23588 | 34006 ft | 530 kts | 36° |
| 2026-05-04 11:56 | 39.65774 | -0.17821 | 33991 ft | 529 kts | 35° |
| 2026-05-04 11:57 | 39.71650 | -0.12054 | 33980 ft | 529 kts | 35° |
| 2026-05-04 11:57 | 39.77514 | -0.06294 | 33976 ft | 529 kts | 35° |
| 2026-05-04 11:58 | 39.83279 | -0.00446 | 33987 ft | 529 kts | 41° |
| 2026-05-04 11:58 | 39.88381 | 0.06457 | 33958 ft | 530 kts | 47° |
| 2026-05-04 11:59 | 39.93417 | 0.13465 | 33955 ft | 530 kts | 46° |
| 2026-05-04 11:59 | 39.98465 | 0.20496 | 33956 ft | 531 kts | 46° |
| 2026-05-04 12:00 | 40.03509 | 0.27520 | 33982 ft | 531 kts | 46° |
| 2026-05-04 12:00 | 40.08547 | 0.34555 | 34000 ft | 530 kts | 47° |
| 2026-05-04 12:01 | 40.13577 | 0.41616 | 33949 ft | 530 kts | 47° |
| 2026-05-04 12:02 | 40.31125 | 0.66340 | 33977 ft | 532 kts | 47° |
| 2026-05-04 12:03 | 40.36159 | 0.73476 | 33977 ft | 531 kts | 47° |
| 2026-05-04 12:03 | 40.41161 | 0.80582 | 33939 ft | 532 kts | 47° |
| 2026-05-04 12:04 | 40.46164 | 0.87707 | 33950 ft | 533 kts | 47° |
| 2026-05-04 12:04 | 40.51166 | 0.94850 | 33966 ft | 533 kts | 47° |
| 2026-05-04 12:05 | 40.56211 | 1.02062 | 33977 ft | 532 kts | 47° |
| 2026-05-04 12:05 | 40.61200 | 1.09218 | 33964 ft | 532 kts | 48° |
| 2026-05-04 12:06 | 40.66177 | 1.16388 | 33933 ft | 532 kts | 47° |
| 2026-05-04 12:06 | 40.71205 | 1.23650 | 33951 ft | 532 kts | 47° |
| 2026-05-04 12:07 | 40.76188 | 1.30849 | 33952 ft | 533 kts | 47° |
| 2026-05-04 12:07 | 40.81172 | 1.38061 | 33956 ft | 533 kts | 48° |
| 2026-05-04 12:08 | 40.86138 | 1.45277 | 33957 ft | 534 kts | 48° |
| 2026-05-04 12:08 | 40.91150 | 1.52569 | 34002 ft | 534 kts | 48° |
| 2026-05-04 12:09 | 40.96139 | 1.59831 | 33948 ft | 534 kts | 48° |
| 2026-05-04 12:09 | 41.01118 | 1.67123 | 33947 ft | 536 kts | 48° |
| 2026-05-04 12:10 | 41.06132 | 1.74491 | 33951 ft | 536 kts | 48° |
| 2026-05-04 12:10 | 41.11116 | 1.81813 | 33960 ft | 537 kts | 48° |
| 2026-05-04 12:11 | 41.16104 | 1.89143 | 33978 ft | 537 kts | 48° |
| 2026-05-04 12:11 | 41.21118 | 1.96537 | 33954 ft | 537 kts | 48° |
| 2026-05-04 12:12 | 41.26088 | 2.03913 | 33960 ft | 538 kts | 47° |
| 2026-05-04 12:12 | 41.31731 | 2.10393 | 33960 ft | 534 kts | 30° |
| 2026-05-04 12:14 | 41.58825 | 2.25261 | 33957 ft | 526 kts | 17° |
| 2026-05-04 12:15 | 41.65612 | 2.28792 | 33957 ft | 525 kts | 17° |
| 2026-05-04 12:15 | 41.72440 | 2.32346 | 33952 ft | 525 kts | 17° |
| 2026-05-04 12:16 | 41.79333 | 2.35942 | 33961 ft | 523 kts | 17° |
| 2026-05-04 12:16 | 41.86065 | 2.39459 | 33958 ft | 522 kts | 17° |
| 2026-05-04 12:17 | 41.92836 | 2.43002 | 33958 ft | 522 kts | 17° |
| 2026-05-04 12:17 | 41.99600 | 2.46551 | 33973 ft | 521 kts | 17° |
| 2026-05-04 12:18 | 42.06340 | 2.50093 | 33946 ft | 519 kts | 17° |
| 2026-05-04 12:18 | 42.13063 | 2.53646 | 33946 ft | 520 kts | 18° |
| 2026-05-04 12:19 | 42.19783 | 2.57198 | 33941 ft | 518 kts | 18° |
| 2026-05-04 12:19 | 42.26505 | 2.60751 | 33950 ft | 518 kts | 18° |
| 2026-05-04 12:20 | 42.33166 | 2.64288 | 33950 ft | 517 kts | 18° |
| 2026-05-04 12:20 | 42.39857 | 2.67848 | 33944 ft | 517 kts | 18° |
| 2026-05-04 12:21 | 42.46551 | 2.71415 | 33938 ft | 516 kts | 18° |
| 2026-05-04 12:21 | 42.53230 | 2.74983 | 33948 ft | 516 kts | 18° |
| 2026-05-04 12:22 | 42.59915 | 2.78566 | 33978 ft | 515 kts | 18° |
| 2026-05-04 12:22 | 42.66571 | 2.82144 | 34003 ft | 514 kts | 18° |
| 2026-05-04 12:23 | 42.72983 | 2.86462 | 34002 ft | 518 kts | 32° |
| 2026-05-04 12:23 | 42.78349 | 2.93016 | 33997 ft | 520 kts | 51° |
| 2026-05-04 12:24 | 42.82645 | 3.00911 | 33984 ft | 519 kts | 55° |
| 2026-05-04 12:24 | 42.86866 | 3.08826 | 33953 ft | 519 kts | 54° |
| 2026-05-04 12:25 | 42.91101 | 3.16790 | 33957 ft | 519 kts | 54° |
| 2026-05-04 12:25 | 42.95335 | 3.24780 | 33966 ft | 519 kts | 55° |
| 2026-05-04 12:26 | 42.99555 | 3.32762 | 34002 ft | 518 kts | 54° |
| 2026-05-04 12:26 | 43.03769 | 3.40735 | 34000 ft | 517 kts | 54° |
| 2026-05-04 12:27 | 43.07969 | 3.48730 | 33998 ft | 517 kts | 55° |
| 2026-05-04 12:27 | 43.12155 | 3.56730 | 33993 ft | 514 kts | 55° |
| 2026-05-04 12:28 | 43.14152 | 3.60771 | 33360 ft | 511 kts | 63° |
| 2026-05-04 12:28 | 43.15460 | 3.65242 | 32668 ft | 502 kts | 80° |
| 2026-05-04 12:28 | 43.15881 | 3.69933 | 31804 ft | 494 kts | 96° |
| 2026-05-04 12:28 | 43.15567 | 3.74577 | 31048 ft | 488 kts | 102° |
| 2026-05-04 12:29 | 43.15129 | 3.79170 | 30394 ft | 484 kts | 102° |
| 2026-05-04 12:29 | 43.14680 | 3.83720 | 29717 ft | 481 kts | 102° |
| 2026-05-04 12:29 | 43.14236 | 3.88224 | 28783 ft | 473 kts | 102° |
| 2026-05-04 12:29 | 43.13792 | 3.92667 | 27592 ft | 468 kts | 102° |
| 2026-05-04 12:30 | 43.13347 | 3.97048 | 26527 ft | 461 kts | 102° |
| 2026-05-04 12:30 | 43.12902 | 4.01360 | 25508 ft | 454 kts | 102° |
| 2026-05-04 12:30 | 43.12450 | 4.05635 | 24029 ft | 458 kts | 102° |
| 2026-05-04 12:30 | 43.11977 | 4.09937 | 22735 ft | 455 kts | 102° |
| 2026-05-04 12:31 | 43.11500 | 4.14179 | 21620 ft | 447 kts | 102° |
| 2026-05-04 12:31 | 43.11024 | 4.18339 | 20492 ft | 440 kts | 102° |
| 2026-05-04 12:31 | 43.10802 | 4.22485 | 19459 ft | 437 kts | 88° |
| 2026-05-04 12:31 | 43.11455 | 4.26520 | 18548 ft | 434 kts | 70° |
| 2026-05-04 12:32 | 43.12951 | 4.30064 | 17538 ft | 429 kts | 51° |
| 2026-05-04 12:32 | 43.17403 | 4.35234 | 15565 ft | 417 kts | 38° |
| 2026-05-04 12:32 | 43.19633 | 4.37573 | 15382 ft | 390 kts | 38° |
| 2026-05-04 12:33 | 43.21725 | 4.39763 | 15130 ft | 368 kts | 38° |
| 2026-05-04 12:33 | 43.23825 | 4.41577 | 14891 ft | 348 kts | 20° |
| 2026-05-04 12:33 | 43.26100 | 4.42563 | 14382 ft | 342 kts | 13° |
| 2026-05-04 12:33 | 43.28408 | 4.43393 | 13625 ft | 343 kts | 13° |
| 2026-05-04 12:34 | 43.29971 | 4.43941 | 13126 ft | 341 kts | 13° |
| 2026-05-04 12:34 | 43.32999 | 4.44998 | 12312 ft | 338 kts | 13° |
| 2026-05-04 12:34 | 43.34503 | 4.45520 | 11966 ft | 336 kts | 13° |
| 2026-05-04 12:34 | 43.36754 | 4.46034 | 11275 ft | 321 kts | 355° |
| 2026-05-04 12:35 | 43.38873 | 4.45426 | 10328 ft | 305 kts | 330° |
| 2026-05-04 12:35 | 43.40568 | 4.43794 | 9363 ft | 294 kts | 309° |
| 2026-05-04 12:35 | 43.41688 | 4.41535 | 8580 ft | 282 kts | 299° |
| 2026-05-04 12:35 | 43.42275 | 4.39015 | 8048 ft | 269 kts | 281° |
| 2026-05-04 12:36 | 43.42796 | 4.36529 | 7349 ft | 269 kts | 280° |
| 2026-05-04 12:36 | 43.43339 | 4.34174 | 7166 ft | 249 kts | 285° |
| 2026-05-04 12:36 | 43.43869 | 4.31943 | 6688 ft | 243 kts | 281° |
| 2026-05-04 12:36 | 43.44394 | 4.29747 | 6077 ft | 241 kts | 281° |
| 2026-05-04 12:37 | 43.44904 | 4.27584 | 5648 ft | 233 kts | 284° |
| 2026-05-04 12:37 | 43.45398 | 4.25486 | 5177 ft | 229 kts | 284° |
| 2026-05-04 12:37 | 43.45885 | 4.23406 | 4687 ft | 226 kts | 284° |
| 2026-05-04 12:37 | 43.46361 | 4.21375 | 4313 ft | 220 kts | 283° |
| 2026-05-04 12:38 | 43.46818 | 4.19410 | 3901 ft | 218 kts | 283° |
| 2026-05-04 12:38 | 43.47494 | 4.17566 | 3573 ft | 216 kts | 302° |
| 2026-05-04 12:38 | 43.48353 | 4.15876 | 3173 ft | 214 kts | 302° |
| 2026-05-04 12:38 | 43.49204 | 4.14205 | 2828 ft | 211 kts | 302° |
| 2026-05-04 12:39 | 43.50043 | 4.12558 | 2556 ft | 209 kts | 300° |
| 2026-05-04 12:39 | 43.50878 | 4.10914 | 2279 ft | 210 kts | 301° |
| 2026-05-04 12:39 | 43.51714 | 4.09260 | 1961 ft | 210 kts | 303° |
| 2026-05-04 12:39 | 43.52548 | 4.07619 | 1696 ft | 207 kts | 302° |
| 2026-05-04 12:40 | 43.53357 | 4.06016 | 1417 ft | 201 kts | 302° |
| 2026-05-04 12:40 | 43.54146 | 4.04447 | 1172 ft | 196 kts | 302° |
| 2026-05-04 12:40 | 43.54915 | 4.02920 | 878 ft | 193 kts | 304° |
| 2026-05-04 12:40 | 43.55662 | 4.01435 | 650 ft | 182 kts | 308° |
| 2026-05-04 12:41 | 43.56359 | 4.00039 | 409 ft | 171 kts | 310° |
| 2026-05-04 12:41 | 43.57009 | 3.98745 | 173 ft | 158 kts | 309° |
| 2026-05-04 12:41 | 43.57612 | 3.97560 | 19 ft | 134 kts | 304° |
| 2026-05-04 12:41 | 43.57978 | 3.96831 | 14 ft | 56 kts | 305° |
| 2026-05-04 12:42 | 43.58177 | 3.96435 | 20 ft | 46 kts | 305° |
| 2026-05-04 12:42 | 43.58322 | 3.96116 | 13 ft | 28 kts | 279° |
| 2026-05-04 12:42 | 43.58279 | 3.95994 | 12 ft | 10 kts | 231° |
| 2026-05-04 12:42 | 43.58254 | 3.95940 | 13 ft | 4 kts | 245° |
| 2026-05-04 12:43 | 43.58247 | 3.95918 | 14 ft | 4 kts | 247° |
| 2026-05-04 12:43 | 43.58236 | 3.95884 | 16 ft | 2 kts | 246° |
| 2026-05-04 12:43 | 43.58224 | 3.95849 | 17 ft | 10 kts | 243° |
| 2026-05-04 12:43 | 43.58166 | 3.95761 | 15 ft | 12 kts | 188° |
| 2026-05-04 12:44 | 43.58109 | 3.95803 | 15 ft | 8 kts | 128° |
| 2026-05-04 12:44 | 43.58082 | 3.95855 | 16 ft | 5 kts | 125° |
| 2026-05-04 12:44 | 43.58057 | 3.95908 | 16 ft | 8 kts | 118° |
| 2026-05-04 12:44 | 43.58039 | 3.95981 | 15 ft | 12 kts | 114° |
| 2026-05-04 12:45 | 43.58014 | 3.95986 | 15 ft | 4 kts | 216° |
| 2026-05-04 12:45 | 43.57996 | 3.95942 | 15 ft | 5 kts | 257° |
| 2026-05-04 12:45 | 43.57984 | 3.95924 | 16 ft | 2 kts | 192° |
| 2026-05-04 12:45 | 43.57978 | 3.95921 | 15 ft | 0 kts | 197° |
| 2026-05-04 12:46 | 43.57975 | 3.95920 | 15 ft | 0 kts | 197° |